createdAt,value
2023-03-03T00:00:58.705Z,94.24
2023-03-03T00:03:27.489Z,94.23
2023-03-03T00:05:54.973Z,94.22
2023-03-03T00:08:22.916Z,94.21
2023-03-03T00:10:50.502Z,94.09
2023-03-03T00:13:25.554Z,94.13
2023-03-03T00:15:53.554Z,94.05
2023-03-03T00:18:35.997Z,94.71
2023-03-03T00:21:15.831Z,94.59
2023-03-03T00:23:45.341Z,94.87
2023-03-03T00:26:22.757Z,94.61
2023-03-03T00:28:53.218Z,94.77
2023-03-03T00:31:35.072Z,94.62
2023-03-03T00:34:26.216Z,94.52
2023-03-03T00:36:58.421Z,94.80
2023-03-03T00:39:37.418Z,94.57
2023-03-03T00:42:15.482Z,94.47
2023-03-03T00:44:57.321Z,94.53
2023-03-03T00:47:31.636Z,94.55
2023-03-03T00:50:07.409Z,95.13
2023-03-03T00:52:48.761Z,94.26
2023-03-03T00:55:15.512Z,94.26
2023-03-03T00:57:42.274Z,94.76
2023-03-03T01:00:10.255Z,94.61
2023-03-03T01:02:37.012Z,94.72
2023-03-03T01:05:03.963Z,94.84
2023-03-03T01:07:30.699Z,94.90
2023-03-03T01:09:57.459Z,95.22
2023-03-03T01:12:24.619Z,95.81
2023-03-03T01:14:53.190Z,95.39
2023-03-03T01:17:20.035Z,95.31
2023-03-03T01:19:46.772Z,95.55
2023-03-03T01:22:13.507Z,95.39
2023-03-03T01:24:40.291Z,95.43
2023-03-03T01:27:07.012Z,95.79
2023-03-03T01:29:33.774Z,95.52
2023-03-03T01:32:00.525Z,95.12
2023-03-03T01:34:27.284Z,95.14
2023-03-03T01:36:54.017Z,95.31
2023-03-03T01:39:20.804Z,95.28
2023-03-03T01:41:47.525Z,95.34
2023-03-03T01:44:15.852Z,95.32
2023-03-03T01:46:55.277Z,95.11
2023-03-03T01:49:29.506Z,95.03
2023-03-03T01:52:01.457Z,94.68
2023-03-03T01:54:35.776Z,93.86
2023-03-03T01:57:11.371Z,94.14
2023-03-03T01:59:45.397Z,94.11
2023-03-03T02:02:12.489Z,93.69
2023-03-03T02:04:39.760Z,94.27
2023-03-03T02:07:11.249Z,94.50
2023-03-03T02:09:59.257Z,93.87
2023-03-03T02:12:38.509Z,93.73
2023-03-03T02:15:18.916Z,93.14
2023-03-03T02:17:47.323Z,93.65
2023-03-03T02:20:49.509Z,93.76
2023-03-03T02:23:51.471Z,93.56
2023-03-03T02:26:41.689Z,93.47
2023-03-03T02:29:10.040Z,93.18
2023-03-03T02:31:38.673Z,93.49
2023-03-03T02:34:05.950Z,93.47
2023-03-03T02:36:37.200Z,94.04
2023-03-03T02:39:26.883Z,94.80
2023-03-03T02:42:06.266Z,94.74
2023-03-03T02:44:33.770Z,94.44
2023-03-03T02:47:01.285Z,94.15
2023-03-03T02:49:32.343Z,94.41
2023-03-03T02:52:00.557Z,94.34
2023-03-03T02:54:31.005Z,94.64
2023-03-03T02:56:59.542Z,94.70
2023-03-03T02:59:26.334Z,94.96
2023-03-03T03:01:53.662Z,95.28
2023-03-03T03:04:24.464Z,94.81
2023-03-03T03:06:53.063Z,95.38
2023-03-03T03:09:22.302Z,95.51
2023-03-03T03:11:49.296Z,95.21
2023-03-03T03:14:16.146Z,95.28
2023-03-03T03:16:43.036Z,96.15
2023-03-03T03:19:09.996Z,96.55
2023-03-03T03:21:37.002Z,96.25
2023-03-03T03:24:03.825Z,96.36
2023-03-03T03:26:30.665Z,96.85
2023-03-03T03:28:57.479Z,97.35
2023-03-03T03:31:25.918Z,97.72
2023-03-03T03:33:53.124Z,97.32
2023-03-03T03:36:20.107Z,96.78
2023-03-03T03:38:46.836Z,96.62
2023-03-03T03:41:14.007Z,97.17
2023-03-03T03:43:41.056Z,97.60
2023-03-03T03:46:08.635Z,98.58
2023-03-03T03:48:35.949Z,98.82
2023-03-03T03:51:03.490Z,98.50
2023-03-03T03:53:30.917Z,98.96
2023-03-03T03:55:57.951Z,98.94
2023-03-03T03:58:24.751Z,98.83
2023-03-03T04:00:51.550Z,98.86
2023-03-03T04:03:18.574Z,98.74
2023-03-03T04:05:45.432Z,98.66
2023-03-03T04:08:12.686Z,98.73
2023-03-03T04:10:39.669Z,98.52
2023-03-03T04:13:06.458Z,98.41
2023-03-03T04:15:33.324Z,98.74
2023-03-03T04:18:00.133Z,98.44
2023-03-03T04:20:26.904Z,98.84
2023-03-03T04:22:53.773Z,98.41
2023-03-03T04:25:20.580Z,98.22
2023-03-03T04:27:47.347Z,97.98
2023-03-03T04:30:16.237Z,98.23
2023-03-03T04:32:43.101Z,98.21
2023-03-03T04:35:11.291Z,97.79
2023-03-03T04:37:39.109Z,97.82
2023-03-03T04:40:08.833Z,97.64
2023-03-03T04:42:36.344Z,98.00
2023-03-03T04:45:04.761Z,97.62
2023-03-03T04:47:32.697Z,97.71
2023-03-03T04:50:00.932Z,97.49
2023-03-03T04:52:28.322Z,97.24
2023-03-03T04:54:55.100Z,97.46
2023-03-03T04:57:21.843Z,98.29
2023-03-03T04:59:48.973Z,98.27
2023-03-03T05:02:15.807Z,98.20
2023-03-03T05:04:42.580Z,97.85
2023-03-03T05:07:09.879Z,97.10
2023-03-03T05:09:37.351Z,96.99
2023-03-03T05:12:04.556Z,97.01
2023-03-03T05:14:31.646Z,97.31
2023-03-03T05:16:58.457Z,97.27
2023-03-03T05:19:25.572Z,97.48
2023-03-03T05:21:52.311Z,97.56
2023-03-03T05:24:19.064Z,97.43
2023-03-03T05:26:45.837Z,97.46
2023-03-03T05:29:12.568Z,97.52
2023-03-03T05:31:39.521Z,97.86
2023-03-03T05:34:06.284Z,97.98
2023-03-03T05:36:33.007Z,97.33
2023-03-03T05:38:59.745Z,97.53
2023-03-03T05:41:26.585Z,97.33
2023-03-03T05:43:53.356Z,97.06
2023-03-03T05:46:20.193Z,97.25
2023-03-03T05:48:47.001Z,97.10
2023-03-03T05:51:14.213Z,97.33
2023-03-03T05:53:41.299Z,97.40
2023-03-03T05:56:08.332Z,97.52
2023-03-03T05:58:35.908Z,97.83
2023-03-03T06:01:02.812Z,98.10
2023-03-03T06:03:29.564Z,97.59
2023-03-03T06:05:56.341Z,97.67
2023-03-03T06:08:23.253Z,97.60
2023-03-03T06:10:50.030Z,97.22
2023-03-03T06:13:16.804Z,97.57
2023-03-03T06:15:44.267Z,97.33
2023-03-03T06:18:11.281Z,97.43
2023-03-03T06:20:38.864Z,97.37
2023-03-03T06:23:05.946Z,97.31
2023-03-03T06:25:35.776Z,97.69
2023-03-03T06:28:03.890Z,97.97
2023-03-03T06:30:30.862Z,97.73
2023-03-03T06:32:57.667Z,98.01
2023-03-03T06:35:24.567Z,97.56
2023-03-03T06:37:51.925Z,97.28
2023-03-03T06:40:18.848Z,97.92
2023-03-03T06:42:45.939Z,97.35
2023-03-03T06:45:13.459Z,97.56
2023-03-03T06:47:40.541Z,97.61
2023-03-03T06:50:10.192Z,98.26
2023-03-03T06:52:36.925Z,98.38
2023-03-03T06:55:14.093Z,98.66
2023-03-03T06:57:41.393Z,98.70
2023-03-03T07:00:27.945Z,98.68
2023-03-03T07:03:04.949Z,98.60
2023-03-03T07:05:33.211Z,98.66
2023-03-03T07:08:00.103Z,98.57
2023-03-03T07:10:31.137Z,98.02
2023-03-03T07:13:15.679Z,97.70
2023-03-03T07:15:42.424Z,97.90
2023-03-03T07:18:40.902Z,98.08
2023-03-03T07:21:16.872Z,97.35
2023-03-03T07:23:45.609Z,97.57
2023-03-03T07:26:18.382Z,97.75
2023-03-03T07:28:53.695Z,97.76
2023-03-03T07:31:37.191Z,97.58
2023-03-03T07:34:22.290Z,97.81
2023-03-03T07:36:51.601Z,97.69
2023-03-03T07:39:40.532Z,97.66
2023-03-03T07:42:32.370Z,97.86
2023-03-03T07:45:01.099Z,98.27
2023-03-03T07:47:36.459Z,98.52
2023-03-03T07:50:18.935Z,98.86
2023-03-03T07:53:01.603Z,99.02
2023-03-03T07:55:40.009Z,98.84
2023-03-03T07:58:23.853Z,98.79
2023-03-03T08:01:29.601Z,98.67
2023-03-03T08:03:57.726Z,98.65
2023-03-03T08:06:45.913Z,99.33
2023-03-03T08:09:12.577Z,99.61
2023-03-03T08:11:55.774Z,99.39
2023-03-03T08:14:28.263Z,98.99
2023-03-03T08:16:58.758Z,99.96
2023-03-03T08:19:28.374Z,100.00
2023-03-03T08:22:18.352Z,99.65
2023-03-03T08:24:45.185Z,99.24
2023-03-03T08:27:11.965Z,98.86
2023-03-03T08:29:39.180Z,98.70
2023-03-03T08:32:06.248Z,98.46
2023-03-03T08:34:33.060Z,98.16
2023-03-03T08:36:59.914Z,98.15
2023-03-03T08:39:26.706Z,97.74
2023-03-03T08:41:53.456Z,97.21
2023-03-03T08:44:20.811Z,96.88
2023-03-03T08:46:47.724Z,96.45
2023-03-03T08:49:14.711Z,95.74
2023-03-03T08:51:42.096Z,95.02
2023-03-03T08:54:09.245Z,94.09
2023-03-03T08:56:36.471Z,93.81
2023-03-03T08:59:03.683Z,93.64
2023-03-03T09:01:32.694Z,92.63
2023-03-03T09:03:59.760Z,92.23
2023-03-03T09:06:26.631Z,92.08
2023-03-03T09:08:55.012Z,91.49
2023-03-03T09:11:28.038Z,90.69
2023-03-03T09:14:02.810Z,90.81
2023-03-03T09:16:38.988Z,90.72
2023-03-03T09:19:32.528Z,90.96
2023-03-03T09:22:24.508Z,90.15
2023-03-03T09:24:56.201Z,89.89
2023-03-03T09:27:30.042Z,89.16
2023-03-03T09:30:03.563Z,88.96
2023-03-03T09:32:43.282Z,88.62
2023-03-03T09:35:39.063Z,88.79
2023-03-03T09:38:33.162Z,89.09
2023-03-03T09:41:21.454Z,88.23
2023-03-03T09:44:07.042Z,87.25
2023-03-03T09:47:03.663Z,86.04
2023-03-03T09:50:15.596Z,85.24
2023-03-03T09:53:15.424Z,85.47
2023-03-03T09:56:01.914Z,84.80
2023-03-03T09:58:46.353Z,83.90
2023-03-03T10:01:38.548Z,84.01
2023-03-03T10:04:44.257Z,83.77
2023-03-03T10:07:40.425Z,82.93
2023-03-03T10:10:34.162Z,83.85
2023-03-03T10:13:52.157Z,82.24
2023-03-03T10:16:49.887Z,81.80
2023-03-03T10:19:39.584Z,80.82
2023-03-03T10:22:20.818Z,80.56
2023-03-03T10:25:28.088Z,79.80
2023-03-03T10:28:34.431Z,79.31
2023-03-03T10:31:14.901Z,78.15
2023-03-03T10:34:00.654Z,79.02
2023-03-03T10:36:43.930Z,78.67
2023-03-03T10:39:34.734Z,77.55
2023-03-03T10:42:24.749Z,76.39
2023-03-03T10:45:13.543Z,75.68
2023-03-03T10:48:14.201Z,75.34
2023-03-03T10:51:19.340Z,76.24
2023-03-03T10:54:44.106Z,75.78
2023-03-03T10:57:27.979Z,74.62
2023-03-03T11:00:26.598Z,72.90
2023-03-03T11:03:33.890Z,74.23
2023-03-03T11:06:20.773Z,72.25
2023-03-03T11:09:17.240Z,72.58
2023-03-03T11:11:43.991Z,71.89
2023-03-03T11:14:50.529Z,70.84
2023-03-03T11:17:29.932Z,71.06
2023-03-03T11:20:33.316Z,70.81
2023-03-03T11:23:44.472Z,69.63
2023-03-03T11:26:54.598Z,68.81
2023-03-03T11:30:01.076Z,69.32
2023-03-03T11:32:43.148Z,68.17
2023-03-03T11:35:37.085Z,69.20
2023-03-03T11:38:36.610Z,68.31
2023-03-03T11:41:20.754Z,67.02
2023-03-03T11:44:00.263Z,66.41
2023-03-03T11:46:37.149Z,66.21
2023-03-03T11:49:12.018Z,66.14
2023-03-03T11:51:50.617Z,66.69
2023-03-03T11:54:34.818Z,65.43
2023-03-03T11:57:21.065Z,66.30
2023-03-03T12:00:28.951Z,65.74
2023-03-03T12:03:28.042Z,65.61
2023-03-03T12:06:12.485Z,67.11
2023-03-03T12:09:01.111Z,64.71
2023-03-03T12:11:38.002Z,64.88
2023-03-03T12:14:52.041Z,66.12
2023-03-03T12:17:46.211Z,65.03
2023-03-03T12:20:52.155Z,64.48
2023-03-03T12:23:43.051Z,65.14
2023-03-03T12:26:34.501Z,63.60
2023-03-03T12:29:53.591Z,63.54
2023-03-03T12:32:41.751Z,63.17
2023-03-03T12:35:18.224Z,64.69
2023-03-03T12:37:55.029Z,63.87
2023-03-03T12:40:36.242Z,63.67
2023-03-03T12:43:26.539Z,62.50
2023-03-03T12:46:07.973Z,62.56
2023-03-03T12:48:52.438Z,63.04
2023-03-03T12:51:37.506Z,61.56
2023-03-03T12:54:38.118Z,62.15
2023-03-03T12:57:31.338Z,61.24
2023-03-03T13:00:28.531Z,60.68
2023-03-03T13:03:17.943Z,59.91
2023-03-03T13:06:16.283Z,59.20
2023-03-03T13:09:07.293Z,59.50
2023-03-03T13:12:08.203Z,60.09
2023-03-03T13:15:01.558Z,61.40
2023-03-03T13:17:35.712Z,60.41
2023-03-03T13:20:40.851Z,60.77
2023-03-03T13:23:17.822Z,60.39
2023-03-03T13:25:49.752Z,59.84
2023-03-03T13:28:28.845Z,58.80
2023-03-03T13:31:22.095Z,59.19
2023-03-03T13:34:02.047Z,59.24
2023-03-03T13:36:54.217Z,60.27
2023-03-03T13:39:27.458Z,59.79
2023-03-03T13:42:06.917Z,60.78
2023-03-03T13:44:43.293Z,59.17
2023-03-03T13:47:30.860Z,59.45
2023-03-03T13:50:36.650Z,58.80
2023-03-03T13:53:12.044Z,60.42
2023-03-03T13:56:50.354Z,60.36
2023-03-03T13:59:35.966Z,59.81
2023-03-03T14:02:26.292Z,58.31
2023-03-03T14:05:12.670Z,58.33
2023-03-03T14:08:07.751Z,57.86
2023-03-03T14:10:52.862Z,59.31
2023-03-03T14:13:47.213Z,59.32
2023-03-03T14:16:34.835Z,58.58
2023-03-03T14:19:30.873Z,58.87
2023-03-03T14:21:57.980Z,57.89
2023-03-03T14:24:26.588Z,58.43
2023-03-03T14:26:59.036Z,58.02
2023-03-03T14:29:28.836Z,58.67
2023-03-03T14:31:58.391Z,58.47
2023-03-03T14:34:41.216Z,58.44
2023-03-03T14:37:43.603Z,57.90
2023-03-03T14:40:20.300Z,57.79
2023-03-03T14:42:52.961Z,59.38
2023-03-03T14:45:41.895Z,58.57
2023-03-03T14:48:24.992Z,58.07
2023-03-03T14:51:04.763Z,58.99
2023-03-03T14:53:38.503Z,58.53
2023-03-03T14:56:49.467Z,57.94
2023-03-03T14:59:20.125Z,58.00
2023-03-03T15:01:47.891Z,57.82
2023-03-03T15:04:23.968Z,59.64
2023-03-03T15:06:53.980Z,59.13
2023-03-03T15:09:43.385Z,58.68
2023-03-03T15:12:26.238Z,58.23
2023-03-03T15:15:05.543Z,59.21
2023-03-03T15:17:40.748Z,58.60
2023-03-03T15:20:22.820Z,58.19
2023-03-03T15:23:16.344Z,57.93
2023-03-03T15:26:09.917Z,58.21
2023-03-03T15:29:02.706Z,57.90
2023-03-03T15:31:37.119Z,58.13
2023-03-03T15:34:34.810Z,58.51
2023-03-03T15:37:39.418Z,58.81
2023-03-03T15:40:21.323Z,59.12
2023-03-03T15:43:12.131Z,58.89
2023-03-03T15:45:58.073Z,58.60
2023-03-03T15:49:12.317Z,58.94
2023-03-03T15:52:03.155Z,59.26
2023-03-03T15:54:57.202Z,59.56
2023-03-03T15:57:46.773Z,60.04
2023-03-03T16:00:38.843Z,59.28
2023-03-03T16:03:15.419Z,59.95
2023-03-03T16:05:54.608Z,59.85
2023-03-03T16:09:07.044Z,60.13
2023-03-03T16:11:50.370Z,60.08
2023-03-03T16:14:33.446Z,60.33
2023-03-03T16:17:24.369Z,60.99
2023-03-03T16:20:03.637Z,61.58
2023-03-03T16:22:50.162Z,61.16
2023-03-03T16:25:47.150Z,61.48
2023-03-03T16:28:16.748Z,61.84
2023-03-03T16:31:41.329Z,61.68
2023-03-03T16:34:36.973Z,62.01
2023-03-03T16:37:44.329Z,61.83
2023-03-03T16:40:36.042Z,62.10
2023-03-03T16:43:21.807Z,62.21
2023-03-03T16:45:48.995Z,62.65
2023-03-03T16:48:32.915Z,62.53
2023-03-03T16:51:14.520Z,62.84
2023-03-03T16:54:03.019Z,63.02
2023-03-03T16:57:06.412Z,63.15
2023-03-03T16:59:51.242Z,63.71
2023-03-03T17:03:04.346Z,63.71
2023-03-03T17:05:45.030Z,64.47
2023-03-03T17:08:20.654Z,64.45
2023-03-03T17:11:35.104Z,64.55
2023-03-03T17:14:20.224Z,64.55
2023-03-03T17:17:08.149Z,65.44
2023-03-03T17:19:37.630Z,65.46
2023-03-03T17:22:19.108Z,65.82
2023-03-03T17:25:13.169Z,65.80
2023-03-03T17:28:13.533Z,65.65
2023-03-03T17:30:55.181Z,67.06
2023-03-03T17:33:37.007Z,67.92
2023-03-03T17:36:24.683Z,68.21
2023-03-03T17:39:31.508Z,68.76
2023-03-03T17:42:19.136Z,68.90
2023-03-03T17:45:00.472Z,68.82
2023-03-03T17:47:57.283Z,69.30
2023-03-03T17:50:54.501Z,69.64
2023-03-03T17:53:56.361Z,70.03
2023-03-03T17:56:57.950Z,69.88
2023-03-03T17:59:59.035Z,70.58
2023-03-03T18:02:32.350Z,71.07
2023-03-03T18:05:45.722Z,71.59
2023-03-03T18:08:24.207Z,71.96
2023-03-03T18:11:30.232Z,72.23
2023-03-03T18:14:26.300Z,72.44
2023-03-03T18:17:04.984Z,72.70
2023-03-03T18:20:00.350Z,72.67
2023-03-03T18:22:34.843Z,73.30
2023-03-03T18:25:20.271Z,73.29
2023-03-03T18:28:08.405Z,74.17
2023-03-03T18:30:58.651Z,74.71
2023-03-03T18:34:03.876Z,75.11
2023-03-03T18:36:32.009Z,75.58
2023-03-03T18:39:03.083Z,75.78
2023-03-03T18:42:04.439Z,75.93
2023-03-03T18:44:32.095Z,77.01
2023-03-03T18:47:01.581Z,77.03
2023-03-03T18:49:58.046Z,77.97
2023-03-03T18:52:31.396Z,78.98
2023-03-03T18:55:10.152Z,78.97
2023-03-03T18:57:38.594Z,79.46
2023-03-03T19:00:25.919Z,80.33
2023-03-03T19:02:59.195Z,81.09
2023-03-03T19:05:30.928Z,80.86
2023-03-03T19:08:03.130Z,80.99
2023-03-03T19:10:52.461Z,82.18
2023-03-03T19:13:34.341Z,82.57
2023-03-03T19:16:06.451Z,83.64
2023-03-03T19:18:41.995Z,84.52
2023-03-03T19:21:11.586Z,85.48
2023-03-03T19:24:00.651Z,86.35
2023-03-03T19:26:30.492Z,86.79
2023-03-03T19:29:46.295Z,87.45
2023-03-03T19:32:44.273Z,88.23
2023-03-03T19:35:46.187Z,88.14
2023-03-03T19:38:31.310Z,88.47
2023-03-03T19:41:22.973Z,89.12
2023-03-03T19:44:27.896Z,89.97
2023-03-03T19:47:11.985Z,89.95
2023-03-03T19:50:06.338Z,89.41
2023-03-03T19:52:42.122Z,89.37
2023-03-03T19:55:30.741Z,89.24
2023-03-03T19:58:25.926Z,89.27
2023-03-03T20:01:32.653Z,89.25
2023-03-03T20:04:32.479Z,89.37
2023-03-03T20:07:29.183Z,90.08
2023-03-03T20:10:12.916Z,89.85
2023-03-03T20:12:47.783Z,90.44
2023-03-03T20:15:28.730Z,90.95
2023-03-03T20:18:01.442Z,91.85
2023-03-03T20:20:55.542Z,91.51
2023-03-03T20:24:18.568Z,91.62
2023-03-03T20:27:10.726Z,91.91
2023-03-03T20:29:59.367Z,91.28
2023-03-03T20:33:11.672Z,91.15
2023-03-03T20:36:10.542Z,90.99
2023-03-03T20:39:06.425Z,91.39
2023-03-03T20:42:14.019Z,91.57
2023-03-03T20:44:53.565Z,92.17
2023-03-03T20:47:46.080Z,92.54
2023-03-03T20:50:35.433Z,92.80
2023-03-03T20:53:29.385Z,93.38
2023-03-03T20:56:17.878Z,93.44
2023-03-03T20:59:13.471Z,94.71
2023-03-03T21:02:00.719Z,93.55
2023-03-03T21:04:37.075Z,92.36
2023-03-03T21:07:05.418Z,91.52
2023-03-03T21:09:39.836Z,91.34
2023-03-03T21:12:30.055Z,90.93
2023-03-03T21:15:05.733Z,90.82
2023-03-03T21:17:32.527Z,90.92
2023-03-03T21:20:19.428Z,91.25
2023-03-03T21:22:46.586Z,92.43
2023-03-03T21:25:48.201Z,92.19
2023-03-03T21:28:32.227Z,91.86
2023-03-03T21:31:15.600Z,91.69
2023-03-03T21:33:50.668Z,91.58
2023-03-03T21:36:32.753Z,91.61
2023-03-03T21:39:02.228Z,91.04
2023-03-03T21:41:53.137Z,90.65
2023-03-03T21:44:44.781Z,91.80
2023-03-03T21:47:15.170Z,91.91
2023-03-03T21:49:43.693Z,91.93
2023-03-03T21:52:12.223Z,91.92
2023-03-03T21:54:39.708Z,91.48
2023-03-03T21:57:06.867Z,91.95
2023-03-03T21:59:33.634Z,91.69
2023-03-03T22:02:00.545Z,91.09
2023-03-03T22:04:27.353Z,90.80
2023-03-03T22:06:54.197Z,90.08
2023-03-03T22:09:21.046Z,90.46
2023-03-03T22:11:48.276Z,90.32
2023-03-03T22:14:15.340Z,89.73
2023-03-03T22:16:42.335Z,89.66
2023-03-03T22:19:09.731Z,89.34
2023-03-03T22:21:38.446Z,89.33
2023-03-03T22:24:06.815Z,89.48
2023-03-03T22:26:33.821Z,90.39
2023-03-03T22:29:00.848Z,90.03
2023-03-03T22:31:27.889Z,89.90
2023-03-03T22:33:54.673Z,90.41
2023-03-03T22:36:21.637Z,90.92
2023-03-03T22:38:49.002Z,90.48
2023-03-03T22:41:16.298Z,90.93
2023-03-03T22:43:43.282Z,91.10
2023-03-03T22:46:10.623Z,90.90
2023-03-03T22:48:38.658Z,90.88
2023-03-03T22:51:06.144Z,90.99
2023-03-03T22:53:33.384Z,91.90
2023-03-03T22:56:00.303Z,92.01
2023-03-03T22:58:27.059Z,91.88
2023-03-03T23:00:54.527Z,91.33
2023-03-03T23:03:21.892Z,91.82
2023-03-03T23:05:51.678Z,92.46
2023-03-03T23:08:20.493Z,92.75
2023-03-03T23:10:48.561Z,92.24
2023-03-03T23:13:16.174Z,92.15
2023-03-03T23:15:43.332Z,91.61
2023-03-03T23:18:10.498Z,91.73
2023-03-03T23:20:37.811Z,91.92
2023-03-03T23:23:05.057Z,92.06
2023-03-03T23:25:31.884Z,91.82
2023-03-03T23:27:59.063Z,91.83
2023-03-03T23:30:26.296Z,91.20
2023-03-03T23:32:53.905Z,91.63
2023-03-03T23:35:20.725Z,91.32
2023-03-03T23:37:47.814Z,92.34
2023-03-03T23:40:16.412Z,92.21
2023-03-03T23:42:43.928Z,91.79
2023-03-03T23:45:12.966Z,91.70
2023-03-03T23:47:39.941Z,91.04
2023-03-03T23:50:07.589Z,90.84
2023-03-03T23:52:34.388Z,91.25
2023-03-03T23:55:02.061Z,90.96
2023-03-03T23:57:29.048Z,91.08
2023-03-03T23:59:55.865Z,91.63
